sensor_id;sensor_type;location;lat;lon;timestamp;P1;durP1;ratioP1;P2;durP2;ratioP2
6432;SDS011;3249;42.690;23.260;2023-12-20T00:02:28;80.00;;;51.07;;
6432;SDS011;3249;42.690;23.260;2023-12-20T00:05:02;77.83;;;49.73;;
6432;SDS011;3249;42.690;23.260;2023-12-20T00:07:32;73.27;;;47.43;;
6432;SDS011;3249;42.690;23.260;2023-12-20T00:10:04;84.67;;;51.07;;
6432;SDS011;3249;42.690;23.260;2023-12-20T00:12:34;72.87;;;47.73;;
6432;SDS011;3249;42.690;23.260;2023-12-20T00:15:06;71.37;;;44.97;;
6432;SDS011;3249;42.690;23.260;2023-12-20T00:17:39;71.00;;;47.07;;
6432;SDS011;3249;42.690;23.260;2023-12-20T00:20:11;70.30;;;45.13;;
6432;SDS011;3249;42.690;23.260;2023-12-20T00:22:43;76.67;;;46.00;;
6432;SDS011;3249;42.690;23.260;2023-12-20T00:25:15;79.43;;;46.50;;
6432;SDS011;3249;42.690;23.260;2023-12-20T00:27:45;64.97;;;43.27;;
6432;SDS011;3249;42.690;23.260;2023-12-20T00:30:14;71.10;;;44.93;;
6432;SDS011;3249;42.690;23.260;2023-12-20T00:32:48;68.97;;;42.43;;
6432;SDS011;3249;42.690;23.260;2023-12-20T00:35:22;63.77;;;41.33;;
6432;SDS011;3249;42.690;23.260;2023-12-20T00:37:53;67.23;;;42.87;;
6432;SDS011;3249;42.690;23.260;2023-12-20T00:40:22;69.60;;;44.73;;
6432;SDS011;3249;42.690;23.260;2023-12-20T00:42:52;65.27;;;42.60;;
6432;SDS011;3249;42.690;23.260;2023-12-20T00:45:21;67.60;;;42.90;;
6432;SDS011;3249;42.690;23.260;2023-12-20T00:47:53;69.30;;;43.97;;
6432;SDS011;3249;42.690;23.260;2023-12-20T00:50:24;68.15;;;43.42;;
6432;SDS011;3249;42.690;23.260;2023-12-20T00:52:53;66.33;;;41.97;;
6432;SDS011;3249;42.690;23.260;2023-12-20T00:55:23;66.22;;;40.83;;
6432;SDS011;3249;42.690;23.260;2023-12-20T00:57:52;72.40;;;43.97;;
6432;SDS011;3249;42.690;23.260;2023-12-20T01:00:21;65.33;;;43.53;;
6432;SDS011;3249;42.690;23.260;2023-12-20T01:02:53;62.83;;;41.07;;
6432;SDS011;3249;42.690;23.260;2023-12-20T01:05:22;75.03;;;43.07;;
6432;SDS011;3249;42.690;23.260;2023-12-20T01:07:51;66.60;;;42.90;;
6432;SDS011;3249;42.690;23.260;2023-12-20T01:10:21;66.90;;;42.27;;
6432;SDS011;3249;42.690;23.260;2023-12-20T01:12:53;69.40;;;43.97;;
6432;SDS011;3249;42.690;23.260;2023-12-20T01:15:24;72.07;;;43.33;;
6432;SDS011;3249;42.690;23.260;2023-12-20T01:17:56;58.87;;;39.87;;
6432;SDS011;3249;42.690;23.260;2023-12-20T01:20:25;67.53;;;41.37;;
6432;SDS011;3249;42.690;23.260;2023-12-20T01:22:54;60.80;;;39.07;;
6432;SDS011;3249;42.690;23.260;2023-12-20T01:25:23;66.43;;;39.55;;
6432;SDS011;3249;42.690;23.260;2023-12-20T01:27:53;58.22;;;37.97;;
6432;SDS011;3249;42.690;23.260;2023-12-20T01:30:23;56.60;;;37.55;;
6432;SDS011;3249;42.690;23.260;2023-12-20T01:32:52;62.13;;;39.43;;
6432;SDS011;3249;42.690;23.260;2023-12-20T01:35:23;58.15;;;38.35;;
6432;SDS011;3249;42.690;23.260;2023-12-20T01:37:53;58.25;;;36.42;;
6432;SDS011;3249;42.690;23.260;2023-12-20T01:40:28;54.83;;;36.70;;
6432;SDS011;3249;42.690;23.260;2023-12-20T01:42:58;59.63;;;38.37;;
6432;SDS011;3249;42.690;23.260;2023-12-20T01:45:27;53.40;;;37.20;;
6432;SDS011;3249;42.690;23.260;2023-12-20T01:47:57;56.97;;;37.70;;
6432;SDS011;3249;42.690;23.260;2023-12-20T01:50:32;57.05;;;38.83;;
6432;SDS011;3249;42.690;23.260;2023-12-20T01:53:04;59.57;;;36.73;;
6432;SDS011;3249;42.690;23.260;2023-12-20T01:55:36;55.67;;;36.07;;
6432;SDS011;3249;42.690;23.260;2023-12-20T01:58:08;54.73;;;36.43;;
6432;SDS011;3249;42.690;23.260;2023-12-20T02:00:39;62.40;;;39.03;;
6432;SDS011;3249;42.690;23.260;2023-12-20T02:03:09;67.32;;;39.15;;
6432;SDS011;3249;42.690;23.260;2023-12-20T02:05:41;60.45;;;38.55;;
6432;SDS011;3249;42.690;23.260;2023-12-20T02:08:10;60.58;;;39.75;;
6432;SDS011;3249;42.690;23.260;2023-12-20T02:10:37;57.75;;;38.25;;
6432;SDS011;3249;42.690;23.260;2023-12-20T02:13:07;52.97;;;37.72;;
6432;SDS011;3249;42.690;23.260;2023-12-20T02:15:38;56.20;;;37.97;;
6432;SDS011;3249;42.690;23.260;2023-12-20T02:18:09;59.47;;;38.20;;
6432;SDS011;3249;42.690;23.260;2023-12-20T02:20:43;60.13;;;38.40;;
6432;SDS011;3249;42.690;23.260;2023-12-20T02:23:15;63.13;;;39.50;;
6432;SDS011;3249;42.690;23.260;2023-12-20T02:25:45;57.90;;;39.23;;
6432;SDS011;3249;42.690;23.260;2023-12-20T02:28:15;57.30;;;38.80;;
6432;SDS011;3249;42.690;23.260;2023-12-20T02:30:44;64.82;;;39.85;;
6432;SDS011;3249;42.690;23.260;2023-12-20T02:33:14;65.00;;;42.17;;
6432;SDS011;3249;42.690;23.260;2023-12-20T02:35:44;59.65;;;39.58;;
6432;SDS011;3249;42.690;23.260;2023-12-20T02:38:16;62.85;;;42.63;;
6432;SDS011;3249;42.690;23.260;2023-12-20T02:40:46;67.53;;;42.08;;
6432;SDS011;3249;42.690;23.260;2023-12-20T02:43:15;58.97;;;40.85;;
6432;SDS011;3249;42.690;23.260;2023-12-20T02:45:44;63.25;;;39.92;;
6432;SDS011;3249;42.690;23.260;2023-12-20T02:48:14;61.83;;;38.63;;
6432;SDS011;3249;42.690;23.260;2023-12-20T02:50:43;58.55;;;39.60;;
6432;SDS011;3249;42.690;23.260;2023-12-20T02:53:17;66.03;;;41.78;;
6432;SDS011;3249;42.690;23.260;2023-12-20T02:55:46;74.30;;;44.30;;
6432;SDS011;3249;42.690;23.260;2023-12-20T02:58:16;66.35;;;42.72;;
6432;SDS011;3249;42.690;23.260;2023-12-20T03:00:46;64.00;;;42.58;;
6432;SDS011;3249;42.690;23.260;2023-12-20T03:03:15;64.53;;;42.70;;
6432;SDS011;3249;42.690;23.260;2023-12-20T03:05:42;62.95;;;42.15;;
6432;SDS011;3249;42.690;23.260;2023-12-20T03:08:11;70.95;;;44.63;;
6432;SDS011;3249;42.690;23.260;2023-12-20T03:10:43;66.93;;;42.83;;
6432;SDS011;3249;42.690;23.260;2023-12-20T03:13:12;133.60;;;71.63;;
6432;SDS011;3249;42.690;23.260;2023-12-20T03:15:42;92.85;;;49.40;;
6432;SDS011;3249;42.690;23.260;2023-12-20T03:18:12;71.43;;;43.83;;
6432;SDS011;3249;42.690;23.260;2023-12-20T03:20:41;79.05;;;47.90;;
6432;SDS011;3249;42.690;23.260;2023-12-20T03:23:10;78.97;;;46.85;;
6432;SDS011;3249;42.690;23.260;2023-12-20T03:25:40;109.60;;;52.72;;
6432;SDS011;3249;42.690;23.260;2023-12-20T03:28:11;68.32;;;43.05;;
6432;SDS011;3249;42.690;23.260;2023-12-20T03:30:44;74.28;;;48.22;;
6432;SDS011;3249;42.690;23.260;2023-12-20T03:33:14;70.82;;;43.38;;
6432;SDS011;3249;42.690;23.260;2023-12-20T03:35:43;72.75;;;46.25;;
6432;SDS011;3249;42.690;23.260;2023-12-20T03:38:12;70.78;;;43.05;;
6432;SDS011;3249;42.690;23.260;2023-12-20T03:40:44;70.97;;;43.08;;
6432;SDS011;3249;42.690;23.260;2023-12-20T03:43:14;70.35;;;42.83;;
6432;SDS011;3249;42.690;23.260;2023-12-20T03:45:43;61.90;;;40.75;;
6432;SDS011;3249;42.690;23.260;2023-12-20T03:48:12;61.92;;;40.28;;
6432;SDS011;3249;42.690;23.260;2023-12-20T03:50:41;74.53;;;44.97;;
6432;SDS011;3249;42.690;23.260;2023-12-20T03:53:13;69.35;;;42.97;;
6432;SDS011;3249;42.690;23.260;2023-12-20T03:55:45;71.68;;;43.45;;
6432;SDS011;3249;42.690;23.260;2023-12-20T03:58:16;70.72;;;44.60;;
6432;SDS011;3249;42.690;23.260;2023-12-20T04:00:46;68.82;;;44.08;;
6432;SDS011;3249;42.690;23.260;2023-12-20T04:03:15;58.67;;;38.53;;
6432;SDS011;3249;42.690;23.260;2023-12-20T04:05:44;61.53;;;41.25;;
6432;SDS011;3249;42.690;23.260;2023-12-20T04:08:14;62.47;;;39.30;;
6432;SDS011;3249;42.690;23.260;2023-12-20T04:10:46;58.42;;;39.83;;
6432;SDS011;3249;42.690;23.260;2023-12-20T04:13:15;64.47;;;40.15;;
6432;SDS011;3249;42.690;23.260;2023-12-20T04:15:45;54.50;;;38.22;;
6432;SDS011;3249;42.690;23.260;2023-12-20T04:18:16;62.38;;;40.08;;
6432;SDS011;3249;42.690;23.260;2023-12-20T04:20:45;57.80;;;39.42;;
6432;SDS011;3249;42.690;23.260;2023-12-20T04:23:15;58.67;;;40.50;;
6432;SDS011;3249;42.690;23.260;2023-12-20T04:25:47;70.95;;;43.88;;
6432;SDS011;3249;42.690;23.260;2023-12-20T04:28:17;71.55;;;44.13;;
6432;SDS011;3249;42.690;23.260;2023-12-20T04:30:46;63.20;;;44.33;;
6432;SDS011;3249;42.690;23.260;2023-12-20T04:33:16;71.85;;;45.15;;
6432;SDS011;3249;42.690;23.260;2023-12-20T04:35:45;74.28;;;45.50;;
6432;SDS011;3249;42.690;23.260;2023-12-20T04:38:14;71.25;;;47.42;;
6432;SDS011;3249;42.690;23.260;2023-12-20T04:40:43;74.07;;;46.22;;
6432;SDS011;3249;42.690;23.260;2023-12-20T04:43:17;71.53;;;46.63;;
6432;SDS011;3249;42.690;23.260;2023-12-20T04:45:46;80.18;;;49.17;;
6432;SDS011;3249;42.690;23.260;2023-12-20T04:48:15;74.30;;;48.80;;
6432;SDS011;3249;42.690;23.260;2023-12-20T04:50:44;80.95;;;50.25;;
6432;SDS011;3249;42.690;23.260;2023-12-20T04:53:14;76.25;;;48.28;;
6432;SDS011;3249;42.690;23.260;2023-12-20T04:55:43;81.78;;;54.97;;
6432;SDS011;3249;42.690;23.260;2023-12-20T04:58:17;79.72;;;51.80;;
6432;SDS011;3249;42.690;23.260;2023-12-20T05:00:46;87.90;;;51.05;;
6432;SDS011;3249;42.690;23.260;2023-12-20T05:03:15;79.65;;;49.22;;
6432;SDS011;3249;42.690;23.260;2023-12-20T05:05:45;83.43;;;51.25;;
6432;SDS011;3249;42.690;23.260;2023-12-20T05:08:15;77.88;;;49.60;;
6432;SDS011;3249;42.690;23.260;2023-12-20T05:10:44;71.80;;;42.75;;
6432;SDS011;3249;42.690;23.260;2023-12-20T05:13:13;71.97;;;43.78;;
6432;SDS011;3249;42.690;23.260;2023-12-20T05:15:45;64.88;;;40.30;;
6432;SDS011;3249;42.690;23.260;2023-12-20T05:18:14;64.72;;;39.63;;
6432;SDS011;3249;42.690;23.260;2023-12-20T05:20:44;58.05;;;39.30;;
6432;SDS011;3249;42.690;23.260;2023-12-20T05:23:13;58.58;;;40.63;;
6432;SDS011;3249;42.690;23.260;2023-12-20T05:25:43;57.97;;;39.03;;
6432;SDS011;3249;42.690;23.260;2023-12-20T05:28:12;61.50;;;38.67;;
6432;SDS011;3249;42.690;23.260;2023-12-20T05:30:41;55.55;;;34.80;;
6432;SDS011;3249;42.690;23.260;2023-12-20T05:33:14;51.13;;;33.78;;
6432;SDS011;3249;42.690;23.260;2023-12-20T05:35:44;50.50;;;34.13;;
6432;SDS011;3249;42.690;23.260;2023-12-20T05:38:13;53.20;;;34.08;;
6432;SDS011;3249;42.690;23.260;2023-12-20T05:40:42;57.35;;;32.20;;
6432;SDS011;3249;42.690;23.260;2023-12-20T05:43:11;71.40;;;36.95;;
6432;SDS011;3249;42.690;23.260;2023-12-20T05:45:41;114.97;;;39.83;;
6432;SDS011;3249;42.690;23.260;2023-12-20T05:48:13;97.72;;;41.25;;
6432;SDS011;3249;42.690;23.260;2023-12-20T05:50:42;89.53;;;41.92;;
6432;SDS011;3249;42.690;23.260;2023-12-20T05:53:11;80.40;;;42.58;;
6432;SDS011;3249;42.690;23.260;2023-12-20T05:55:41;101.35;;;51.70;;
6432;SDS011;3249;42.690;23.260;2023-12-20T05:58:10;154.30;;;91.18;;
6432;SDS011;3249;42.690;23.260;2023-12-20T06:00:39;170.05;;;100.60;;
6432;SDS011;3249;42.690;23.260;2023-12-20T06:03:09;199.57;;;108.10;;
6432;SDS011;3249;42.690;23.260;2023-12-20T06:05:40;179.50;;;102.38;;
6432;SDS011;3249;42.690;23.260;2023-12-20T06:08:10;168.65;;;84.85;;
6432;SDS011;3249;42.690;23.260;2023-12-20T06:10:40;168.38;;;60.55;;
6432;SDS011;3249;42.690;23.260;2023-12-20T06:13:09;163.85;;;76.70;;
6432;SDS011;3249;42.690;23.260;2023-12-20T06:15:38;183.25;;;48.17;;
6432;SDS011;3249;42.690;23.260;2023-12-20T06:18:08;196.68;;;50.75;;
6432;SDS011;3249;42.690;23.260;2023-12-20T06:20:40;163.52;;;47.35;;
6432;SDS011;3249;42.690;23.260;2023-12-20T06:23:09;148.10;;;48.80;;
6432;SDS011;3249;42.690;23.260;2023-12-20T06:25:39;152.68;;;43.67;;
6432;SDS011;3249;42.690;23.260;2023-12-20T06:28:14;141.18;;;43.95;;
6432;SDS011;3249;42.690;23.260;2023-12-20T06:30:50;146.32;;;45.63;;
6432;SDS011;3249;42.690;23.260;2023-12-20T06:33:25;149.55;;;42.90;;
6432;SDS011;3249;42.690;23.260;2023-12-20T06:35:59;77.93;;;37.13;;
6432;SDS011;3249;42.690;23.260;2023-12-20T06:38:29;65.85;;;36.60;;
6432;SDS011;3249;42.690;23.260;2023-12-20T06:40:58;61.60;;;37.00;;
6432;SDS011;3249;42.690;23.260;2023-12-20T06:43:28;62.05;;;35.88;;
6432;SDS011;3249;42.690;23.260;2023-12-20T06:45:58;62.60;;;33.35;;
6432;SDS011;3249;42.690;23.260;2023-12-20T06:48:27;63.67;;;32.88;;
6432;SDS011;3249;42.690;23.260;2023-12-20T06:50:59;45.90;;;26.02;;
6432;SDS011;3249;42.690;23.260;2023-12-20T06:53:29;37.47;;;26.20;;
6432;SDS011;3249;42.690;23.260;2023-12-20T06:56:00;40.42;;;26.05;;
6432;SDS011;3249;42.690;23.260;2023-12-20T06:58:47;48.15;;;28.83;;
6432;SDS011;3249;42.690;23.260;2023-12-20T07:01:17;45.70;;;29.17;;
6432;SDS011;3249;42.690;23.260;2023-12-20T07:03:49;43.28;;;28.02;;
6432;SDS011;3249;42.690;23.260;2023-12-20T07:06:24;40.15;;;27.35;;
6432;SDS011;3249;42.690;23.260;2023-12-20T07:09:01;41.55;;;28.23;;
6432;SDS011;3249;42.690;23.260;2023-12-20T07:11:31;42.83;;;28.58;;
6432;SDS011;3249;42.690;23.260;2023-12-20T07:14:05;56.20;;;29.80;;
6432;SDS011;3249;42.690;23.260;2023-12-20T07:16:37;49.25;;;31.02;;
6432;SDS011;3249;42.690;23.260;2023-12-20T07:19:09;58.63;;;33.47;;
6432;SDS011;3249;42.690;23.260;2023-12-20T07:21:44;63.55;;;35.42;;
6432;SDS011;3249;42.690;23.260;2023-12-20T07:24:16;59.05;;;35.33;;
6432;SDS011;3249;42.690;23.260;2023-12-20T07:26:51;57.05;;;34.90;;
6432;SDS011;3249;42.690;23.260;2023-12-20T07:29:23;55.17;;;36.03;;
6432;SDS011;3249;42.690;23.260;2023-12-20T07:32:08;60.88;;;36.42;;
6432;SDS011;3249;42.690;23.260;2023-12-20T07:34:37;68.93;;;37.77;;
6432;SDS011;3249;42.690;23.260;2023-12-20T07:37:12;65.77;;;38.43;;
6432;SDS011;3249;42.690;23.260;2023-12-20T07:39:47;65.13;;;39.07;;
6432;SDS011;3249;42.690;23.260;2023-12-20T07:42:23;71.97;;;41.77;;
6432;SDS011;3249;42.690;23.260;2023-12-20T07:44:52;88.30;;;54.93;;
6432;SDS011;3249;42.690;23.260;2023-12-20T07:47:24;100.73;;;58.00;;
6432;SDS011;3249;42.690;23.260;2023-12-20T07:49:55;137.17;;;71.67;;
6432;SDS011;3249;42.690;23.260;2023-12-20T07:52:29;100.37;;;54.07;;
6432;SDS011;3249;42.690;23.260;2023-12-20T07:55:01;78.37;;;48.40;;
6432;SDS011;3249;42.690;23.260;2023-12-20T07:57:33;68.33;;;43.53;;
6432;SDS011;3249;42.690;23.260;2023-12-20T08:00:06;63.37;;;40.97;;
6432;SDS011;3249;42.690;23.260;2023-12-20T08:02:37;61.93;;;36.63;;
6432;SDS011;3249;42.690;23.260;2023-12-20T08:05:07;62.27;;;40.27;;
6432;SDS011;3249;42.690;23.260;2023-12-20T08:07:39;67.95;;;39.90;;
6432;SDS011;3249;42.690;23.260;2023-12-20T08:10:08;63.00;;;38.73;;
6432;SDS011;3249;42.690;23.260;2023-12-20T08:12:38;59.93;;;38.37;;
6432;SDS011;3249;42.690;23.260;2023-12-20T08:15:08;57.33;;;36.07;;
6432;SDS011;3249;42.690;23.260;2023-12-20T08:17:38;63.83;;;37.50;;
6432;SDS011;3249;42.690;23.260;2023-12-20T08:20:08;59.60;;;40.63;;
6432;SDS011;3249;42.690;23.260;2023-12-20T08:22:40;83.17;;;45.90;;
6432;SDS011;3249;42.690;23.260;2023-12-20T08:25:11;85.73;;;49.43;;
6432;SDS011;3249;42.690;23.260;2023-12-20T08:27:42;121.80;;;64.20;;
6432;SDS011;3249;42.690;23.260;2023-12-20T08:30:13;121.97;;;68.20;;
6432;SDS011;3249;42.690;23.260;2023-12-20T08:32:49;128.07;;;67.83;;
6432;SDS011;3249;42.690;23.260;2023-12-20T08:35:19;127.67;;;74.17;;
6432;SDS011;3249;42.690;23.260;2023-12-20T08:37:52;230.53;;;124.63;;
6432;SDS011;3249;42.690;23.260;2023-12-20T08:40:22;271.97;;;144.33;;
6432;SDS011;3249;42.690;23.260;2023-12-20T08:42:53;245.23;;;135.33;;
6432;SDS011;3249;42.690;23.260;2023-12-20T08:45:24;251.07;;;137.33;;
6432;SDS011;3249;42.690;23.260;2023-12-20T08:47:55;252.20;;;139.27;;
6432;SDS011;3249;42.690;23.260;2023-12-20T08:50:26;212.07;;;118.47;;
6432;SDS011;3249;42.690;23.260;2023-12-20T08:52:59;200.37;;;117.83;;
6432;SDS011;3249;42.690;23.260;2023-12-20T08:55:28;188.20;;;105.53;;
6432;SDS011;3249;42.690;23.260;2023-12-20T08:57:58;190.87;;;109.60;;
6432;SDS011;3249;42.690;23.260;2023-12-20T09:00:30;197.13;;;109.23;;
6432;SDS011;3249;42.690;23.260;2023-12-20T09:02:59;199.57;;;113.30;;
6432;SDS011;3249;42.690;23.260;2023-12-20T09:05:31;192.03;;;114.03;;
6432;SDS011;3249;42.690;23.260;2023-12-20T09:08:04;206.63;;;119.63;;
6432;SDS011;3249;42.690;23.260;2023-12-20T09:10:35;218.17;;;118.53;;
6432;SDS011;3249;42.690;23.260;2023-12-20T09:13:05;215.70;;;119.50;;
6432;SDS011;3249;42.690;23.260;2023-12-20T09:15:35;191.43;;;118.07;;
6432;SDS011;3249;42.690;23.260;2023-12-20T09:18:07;197.27;;;113.90;;
6432;SDS011;3249;42.690;23.260;2023-12-20T09:20:38;179.40;;;103.87;;
6432;SDS011;3249;42.690;23.260;2023-12-20T09:23:09;157.13;;;93.27;;
6432;SDS011;3249;42.690;23.260;2023-12-20T09:25:39;145.47;;;93.33;;
6432;SDS011;3249;42.690;23.260;2023-12-20T09:28:11;148.17;;;83.03;;
6432;SDS011;3249;42.690;23.260;2023-12-20T09:30:44;150.77;;;86.00;;
6432;SDS011;3249;42.690;23.260;2023-12-20T09:33:13;145.20;;;84.73;;
6432;SDS011;3249;42.690;23.260;2023-12-20T09:35:43;144.77;;;80.77;;
6432;SDS011;3249;42.690;23.260;2023-12-20T09:38:15;148.83;;;85.53;;
6432;SDS011;3249;42.690;23.260;2023-12-20T09:40:48;166.27;;;93.37;;
6432;SDS011;3249;42.690;23.260;2023-12-20T09:43:20;200.40;;;128.63;;
6432;SDS011;3249;42.690;23.260;2023-12-20T09:45:56;187.00;;;122.77;;
6432;SDS011;3249;42.690;23.260;2023-12-20T09:48:31;221.47;;;140.03;;
6432;SDS011;3249;42.690;23.260;2023-12-20T09:51:02;216.83;;;138.07;;
6432;SDS011;3249;42.690;23.260;2023-12-20T09:53:34;242.97;;;151.37;;
6432;SDS011;3249;42.690;23.260;2023-12-20T09:56:10;238.33;;;145.87;;
6432;SDS011;3249;42.690;23.260;2023-12-20T09:58:44;234.73;;;140.77;;
6432;SDS011;3249;42.690;23.260;2023-12-20T10:01:14;230.70;;;143.87;;
6432;SDS011;3249;42.690;23.260;2023-12-20T10:03:45;215.70;;;129.97;;
6432;SDS011;3249;42.690;23.260;2023-12-20T10:06:14;220.87;;;133.10;;
6432;SDS011;3249;42.690;23.260;2023-12-20T10:08:46;229.20;;;141.00;;
6432;SDS011;3249;42.690;23.260;2023-12-20T10:11:15;226.87;;;139.37;;
6432;SDS011;3249;42.690;23.260;2023-12-20T10:13:47;217.33;;;131.30;;
6432;SDS011;3249;42.690;23.260;2023-12-20T10:16:20;235.50;;;148.40;;
6432;SDS011;3249;42.690;23.260;2023-12-20T10:18:53;249.27;;;153.60;;
6432;SDS011;3249;42.690;23.260;2023-12-20T10:21:23;250.10;;;151.23;;
6432;SDS011;3249;42.690;23.260;2023-12-20T10:23:56;235.07;;;144.93;;
6432;SDS011;3249;42.690;23.260;2023-12-20T10:26:29;226.20;;;132.87;;
6432;SDS011;3249;42.690;23.260;2023-12-20T10:28:59;214.63;;;127.00;;
6432;SDS011;3249;42.690;23.260;2023-12-20T10:31:32;207.33;;;121.47;;
6432;SDS011;3249;42.690;23.260;2023-12-20T10:34:07;207.40;;;127.60;;
6432;SDS011;3249;42.690;23.260;2023-12-20T10:36:38;223.90;;;133.90;;
6432;SDS011;3249;42.690;23.260;2023-12-20T10:39:10;231.60;;;137.73;;
6432;SDS011;3249;42.690;23.260;2023-12-20T10:41:42;228.23;;;136.63;;
6432;SDS011;3249;42.690;23.260;2023-12-20T10:44:15;222.47;;;134.67;;
6432;SDS011;3249;42.690;23.260;2023-12-20T10:46:45;212.10;;;127.77;;
6432;SDS011;3249;42.690;23.260;2023-12-20T10:49:17;211.30;;;128.03;;
6432;SDS011;3249;42.690;23.260;2023-12-20T10:51:48;235.47;;;144.17;;
6432;SDS011;3249;42.690;23.260;2023-12-20T10:54:23;239.37;;;139.50;;
6432;SDS011;3249;42.690;23.260;2023-12-20T10:56:52;234.30;;;142.13;;
6432;SDS011;3249;42.690;23.260;2023-12-20T10:59:25;254.73;;;156.53;;
6432;SDS011;3249;42.690;23.260;2023-12-20T11:01:57;237.83;;;146.00;;
6432;SDS011;3249;42.690;23.260;2023-12-20T11:04:35;259.10;;;157.97;;
6432;SDS011;3249;42.690;23.260;2023-12-20T11:07:08;313.53;;;187.83;;
6432;SDS011;3249;42.690;23.260;2023-12-20T11:09:54;320.53;;;198.07;;
6432;SDS011;3249;42.690;23.260;2023-12-20T11:12:35;326.90;;;205.33;;
6432;SDS011;3249;42.690;23.260;2023-12-20T11:15:11;334.23;;;206.47;;
6432;SDS011;3249;42.690;23.260;2023-12-20T11:17:44;322.73;;;204.97;;
6432;SDS011;3249;42.690;23.260;2023-12-20T11:20:16;298.00;;;186.27;;
6432;SDS011;3249;42.690;23.260;2023-12-20T11:22:53;244.43;;;155.50;;
6432;SDS011;3249;42.690;23.260;2023-12-20T11:25:27;225.43;;;139.27;;
6432;SDS011;3249;42.690;23.260;2023-12-20T11:28:09;212.23;;;125.83;;
6432;SDS011;3249;42.690;23.260;2023-12-20T11:30:42;245.93;;;143.77;;
6432;SDS011;3249;42.690;23.260;2023-12-20T11:33:15;219.33;;;138.07;;
6432;SDS011;3249;42.690;23.260;2023-12-20T11:35:46;258.70;;;149.80;;
6432;SDS011;3249;42.690;23.260;2023-12-20T11:38:23;250.73;;;147.23;;
6432;SDS011;3249;42.690;23.260;2023-12-20T11:40:58;264.97;;;161.97;;
6432;SDS011;3249;42.690;23.260;2023-12-20T11:43:29;226.57;;;127.03;;
6432;SDS011;3249;42.690;23.260;2023-12-20T11:46:04;236.77;;;128.80;;
6432;SDS011;3249;42.690;23.260;2023-12-20T11:48:35;225.10;;;124.83;;
6432;SDS011;3249;42.690;23.260;2023-12-20T11:51:09;215.10;;;124.03;;
6432;SDS011;3249;42.690;23.260;2023-12-20T11:53:39;223.00;;;124.90;;
6432;SDS011;3249;42.690;23.260;2023-12-20T11:56:12;231.30;;;125.70;;
6432;SDS011;3249;42.690;23.260;2023-12-20T11:58:41;215.53;;;122.20;;
6432;SDS011;3249;42.690;23.260;2023-12-20T12:01:11;235.37;;;134.53;;
6432;SDS011;3249;42.690;23.260;2023-12-20T12:03:40;225.00;;;125.37;;
6432;SDS011;3249;42.690;23.260;2023-12-20T12:06:09;216.17;;;120.30;;
6432;SDS011;3249;42.690;23.260;2023-12-20T12:08:39;252.60;;;153.23;;
6432;SDS011;3249;42.690;23.260;2023-12-20T12:11:09;299.93;;;191.73;;
6432;SDS011;3249;42.690;23.260;2023-12-20T12:13:40;288.43;;;182.07;;
6432;SDS011;3249;42.690;23.260;2023-12-20T12:16:10;224.70;;;129.20;;
6432;SDS011;3249;42.690;23.260;2023-12-20T12:18:39;221.43;;;128.67;;
6432;SDS011;3249;42.690;23.260;2023-12-20T12:21:09;233.90;;;137.73;;
6432;SDS011;3249;42.690;23.260;2023-12-20T12:23:38;234.03;;;137.97;;
6432;SDS011;3249;42.690;23.260;2023-12-20T12:26:07;233.00;;;127.90;;
6432;SDS011;3249;42.690;23.260;2023-12-20T12:28:39;244.43;;;136.67;;
6432;SDS011;3249;42.690;23.260;2023-12-20T12:31:12;245.83;;;136.73;;
6432;SDS011;3249;42.690;23.260;2023-12-20T12:33:43;220.10;;;125.80;;
6432;SDS011;3249;42.690;23.260;2023-12-20T12:36:13;237.77;;;131.80;;
6432;SDS011;3249;42.690;23.260;2023-12-20T12:38:44;238.33;;;133.63;;
6432;SDS011;3249;42.690;23.260;2023-12-20T12:41:14;238.83;;;133.93;;
6432;SDS011;3249;42.690;23.260;2023-12-20T12:43:46;243.90;;;138.90;;
6432;SDS011;3249;42.690;23.260;2023-12-20T12:46:16;267.63;;;153.67;;
6432;SDS011;3249;42.690;23.260;2023-12-20T12:48:45;220.57;;;126.53;;
6432;SDS011;3249;42.690;23.260;2023-12-20T12:51:16;207.43;;;115.13;;
6432;SDS011;3249;42.690;23.260;2023-12-20T12:53:45;184.47;;;103.87;;
6432;SDS011;3249;42.690;23.260;2023-12-20T12:56:14;190.33;;;101.70;;
6432;SDS011;3249;42.690;23.260;2023-12-20T12:58:46;190.10;;;108.20;;
6432;SDS011;3249;42.690;23.260;2023-12-20T13:01:16;193.87;;;109.27;;
6432;SDS011;3249;42.690;23.260;2023-12-20T13:03:45;211.47;;;124.20;;
6432;SDS011;3249;42.690;23.260;2023-12-20T13:06:14;202.20;;;121.67;;
6432;SDS011;3249;42.690;23.260;2023-12-20T13:08:44;200.13;;;116.47;;
6432;SDS011;3249;42.690;23.260;2023-12-20T13:11:13;211.50;;;128.63;;
6432;SDS011;3249;42.690;23.260;2023-12-20T13:13:42;212.10;;;116.23;;
6432;SDS011;3249;42.690;23.260;2023-12-20T13:16:16;207.10;;;112.10;;
6432;SDS011;3249;42.690;23.260;2023-12-20T13:18:45;216.57;;;118.90;;
6432;SDS011;3249;42.690;23.260;2023-12-20T13:21:15;194.17;;;105.27;;
6432;SDS011;3249;42.690;23.260;2023-12-20T13:23:45;190.63;;;104.47;;
6432;SDS011;3249;42.690;23.260;2023-12-20T13:26:14;201.00;;;114.73;;
6432;SDS011;3249;42.690;23.260;2023-12-20T13:28:46;236.03;;;137.87;;
6432;SDS011;3249;42.690;23.260;2023-12-20T13:31:15;237.73;;;136.03;;
6432;SDS011;3249;42.690;23.260;2023-12-20T13:33:44;242.03;;;136.20;;
6432;SDS011;3249;42.690;23.260;2023-12-20T13:36:15;219.67;;;118.70;;
6432;SDS011;3249;42.690;23.260;2023-12-20T13:38:44;246.30;;;131.67;;
6432;SDS011;3249;42.690;23.260;2023-12-20T13:41:13;222.47;;;121.50;;
6432;SDS011;3249;42.690;23.260;2023-12-20T13:43:42;188.97;;;100.00;;
6432;SDS011;3249;42.690;23.260;2023-12-20T13:46:14;172.30;;;89.43;;
6432;SDS011;3249;42.690;23.260;2023-12-20T13:48:44;191.77;;;94.77;;
6432;SDS011;3249;42.690;23.260;2023-12-20T13:51:13;184.43;;;92.00;;
6432;SDS011;3249;42.690;23.260;2023-12-20T13:53:43;190.77;;;98.30;;
6432;SDS011;3249;42.690;23.260;2023-12-20T13:56:14;191.93;;;92.73;;
6432;SDS011;3249;42.690;23.260;2023-12-20T13:58:44;173.03;;;96.87;;
6432;SDS011;3249;42.690;23.260;2023-12-20T14:01:15;201.47;;;111.17;;
6432;SDS011;3249;42.690;23.260;2023-12-20T14:03:45;214.93;;;113.57;;
6432;SDS011;3249;42.690;23.260;2023-12-20T14:06:15;219.17;;;112.27;;
6432;SDS011;3249;42.690;23.260;2023-12-20T14:08:44;212.33;;;113.27;;
6432;SDS011;3249;42.690;23.260;2023-12-20T14:11:14;222.23;;;116.57;;
6432;SDS011;3249;42.690;23.260;2023-12-20T14:13:48;231.63;;;113.73;;
6432;SDS011;3249;42.690;23.260;2023-12-20T14:16:20;219.07;;;108.20;;
6432;SDS011;3249;42.690;23.260;2023-12-20T14:18:49;227.17;;;115.70;;
6432;SDS011;3249;42.690;23.260;2023-12-20T14:21:23;220.73;;;114.50;;
6432;SDS011;3249;42.690;23.260;2023-12-20T14:23:52;244.17;;;117.77;;
6432;SDS011;3249;42.690;23.260;2023-12-20T14:26:22;240.20;;;116.57;;
6432;SDS011;3249;42.690;23.260;2023-12-20T14:28:52;243.83;;;117.27;;
6432;SDS011;3249;42.690;23.260;2023-12-20T14:31:24;255.60;;;119.10;;
6432;SDS011;3249;42.690;23.260;2023-12-20T14:33:53;226.93;;;113.30;;
6432;SDS011;3249;42.690;23.260;2023-12-20T14:36:23;241.33;;;119.63;;
6432;SDS011;3249;42.690;23.260;2023-12-20T14:38:55;244.40;;;112.87;;
6432;SDS011;3249;42.690;23.260;2023-12-20T14:41:26;239.30;;;114.60;;
6432;SDS011;3249;42.690;23.260;2023-12-20T14:44:01;268.23;;;115.27;;
6432;SDS011;3249;42.690;23.260;2023-12-20T14:46:34;259.30;;;118.47;;